sensor_id;sensor_type;location;lat;lon;timestamp;P1;durP1;ratioP1;P2;durP2;ratioP2
84763;SDS011;74992;51.072;6.088;2024-02-26T00:01:02;2.97;;;1.45;;
84763;SDS011;74992;51.072;6.088;2024-02-26T00:04:04;2.55;;;1.40;;
84763;SDS011;74992;51.072;6.088;2024-02-26T00:07:05;2.03;;;1.10;;
84763;SDS011;74992;51.072;6.088;2024-02-26T00:10:07;3.05;;;1.60;;
84763;SDS011;74992;51.072;6.088;2024-02-26T00:13:08;3.20;;;1.50;;
84763;SDS011;74992;51.072;6.088;2024-02-26T00:16:10;2.22;;;1.30;;
84763;SDS011;74992;51.072;6.088;2024-02-26T00:19:11;1.52;;;1.10;;
84763;SDS011;74992;51.072;6.088;2024-02-26T00:22:13;2.22;;;1.10;;
84763;SDS011;74992;51.072;6.088;2024-02-26T00:25:15;2.47;;;1.40;;
84763;SDS011;74992;51.072;6.088;2024-02-26T00:28:16;2.88;;;1.42;;
84763;SDS011;74992;51.072;6.088;2024-02-26T00:31:19;4.03;;;1.60;;
84763;SDS011;74992;51.072;6.088;2024-02-26T00:34:21;3.63;;;2.00;;
84763;SDS011;74992;51.072;6.088;2024-02-26T00:37:22;3.85;;;2.08;;
84763;SDS011;74992;51.072;6.088;2024-02-26T00:40:24;2.05;;;1.10;;
84763;SDS011;74992;51.072;6.088;2024-02-26T00:43:26;2.70;;;1.55;;
84763;SDS011;74992;51.072;6.088;2024-02-26T00:46:27;2.22;;;1.45;;
84763;SDS011;74992;51.072;6.088;2024-02-26T00:49:28;2.65;;;1.48;;
84763;SDS011;74992;51.072;6.088;2024-02-26T00:52:30;3.30;;;1.77;;
84763;SDS011;74992;51.072;6.088;2024-02-26T00:55:32;3.67;;;2.15;;
84763;SDS011;74992;51.072;6.088;2024-02-26T00:58:35;3.50;;;1.95;;
84763;SDS011;74992;51.072;6.088;2024-02-26T01:01:37;4.00;;;1.58;;
84763;SDS011;74992;51.072;6.088;2024-02-26T01:04:38;3.38;;;1.80;;
84763;SDS011;74992;51.072;6.088;2024-02-26T01:07:40;1.98;;;1.20;;
84763;SDS011;74992;51.072;6.088;2024-02-26T01:10:41;2.05;;;1.55;;
84763;SDS011;74992;51.072;6.088;2024-02-26T01:13:43;2.53;;;1.60;;
84763;SDS011;74992;51.072;6.088;2024-02-26T01:16:44;2.25;;;1.55;;
84763;SDS011;74992;51.072;6.088;2024-02-26T01:19:46;2.90;;;1.80;;
84763;SDS011;74992;51.072;6.088;2024-02-26T01:22:47;3.67;;;2.13;;
84763;SDS011;74992;51.072;6.088;2024-02-26T01:25:49;2.92;;;1.95;;
84763;SDS011;74992;51.072;6.088;2024-02-26T01:28:51;2.47;;;1.60;;
84763;SDS011;74992;51.072;6.088;2024-02-26T01:31:54;2.78;;;1.65;;
84763;SDS011;74992;51.072;6.088;2024-02-26T01:34:56;2.53;;;1.85;;
84763;SDS011;74992;51.072;6.088;2024-02-26T01:37:58;2.75;;;1.40;;
84763;SDS011;74992;51.072;6.088;2024-02-26T01:40:59;2.58;;;1.27;;
84763;SDS011;74992;51.072;6.088;2024-02-26T01:44:01;2.22;;;1.23;;
84763;SDS011;74992;51.072;6.088;2024-02-26T01:47:03;2.38;;;1.23;;
84763;SDS011;74992;51.072;6.088;2024-02-26T01:50:05;2.13;;;1.23;;
84763;SDS011;74992;51.072;6.088;2024-02-26T01:53:08;3.33;;;1.30;;
84763;SDS011;74992;51.072;6.088;2024-02-26T01:56:11;2.55;;;1.40;;
84763;SDS011;74992;51.072;6.088;2024-02-26T01:59:13;4.20;;;1.83;;
84763;SDS011;74992;51.072;6.088;2024-02-26T02:02:15;2.72;;;1.65;;
84763;SDS011;74992;51.072;6.088;2024-02-26T02:05:17;2.13;;;1.10;;
84763;SDS011;74992;51.072;6.088;2024-02-26T02:08:19;2.22;;;1.40;;
84763;SDS011;74992;51.072;6.088;2024-02-26T02:11:21;1.98;;;1.35;;
84763;SDS011;74992;51.072;6.088;2024-02-26T02:14:22;2.15;;;1.30;;
84763;SDS011;74992;51.072;6.088;2024-02-26T02:17:24;2.53;;;1.50;;
84763;SDS011;74992;51.072;6.088;2024-02-26T02:20:26;2.38;;;1.27;;
84763;SDS011;74992;51.072;6.088;2024-02-26T02:23:33;1.58;;;1.10;;
84763;SDS011;74992;51.072;6.088;2024-02-26T02:26:35;2.10;;;1.15;;
84763;SDS011;74992;51.072;6.088;2024-02-26T02:29:37;1.75;;;0.98;;
84763;SDS011;74992;51.072;6.088;2024-02-26T02:32:39;2.67;;;1.50;;
84763;SDS011;74992;51.072;6.088;2024-02-26T02:35:42;2.00;;;1.13;;
84763;SDS011;74992;51.072;6.088;2024-02-26T02:38:50;2.60;;;1.83;;
84763;SDS011;74992;51.072;6.088;2024-02-26T02:41:52;2.65;;;1.75;;
84763;SDS011;74992;51.072;6.088;2024-02-26T02:44:53;3.15;;;1.65;;
84763;SDS011;74992;51.072;6.088;2024-02-26T02:47:55;2.58;;;1.40;;
84763;SDS011;74992;51.072;6.088;2024-02-26T02:50:56;2.72;;;1.40;;
84763;SDS011;74992;51.072;6.088;2024-02-26T02:53:58;3.35;;;1.55;;
84763;SDS011;74992;51.072;6.088;2024-02-26T02:57:01;2.88;;;1.70;;
84763;SDS011;74992;51.072;6.088;2024-02-26T03:00:03;3.15;;;1.30;;
84763;SDS011;74992;51.072;6.088;2024-02-26T03:03:05;1.80;;;1.10;;
84763;SDS011;74992;51.072;6.088;2024-02-26T03:06:06;2.22;;;1.10;;
84763;SDS011;74992;51.072;6.088;2024-02-26T03:09:08;1.95;;;1.10;;
84763;SDS011;74992;51.072;6.088;2024-02-26T03:12:09;2.25;;;1.10;;
84763;SDS011;74992;51.072;6.088;2024-02-26T03:15:11;3.20;;;1.73;;
84763;SDS011;74992;51.072;6.088;2024-02-26T03:18:12;2.88;;;1.80;;
84763;SDS011;74992;51.072;6.088;2024-02-26T03:21:14;2.22;;;1.42;;
84763;SDS011;74992;51.072;6.088;2024-02-26T03:24:16;1.33;;;1.00;;
84763;SDS011;74992;51.072;6.088;2024-02-26T03:27:17;2.13;;;0.82;;
84763;SDS011;74992;51.072;6.088;2024-02-26T03:30:19;4.03;;;1.50;;
84763;SDS011;74992;51.072;6.088;2024-02-26T03:33:20;2.47;;;2.28;;
84763;SDS011;74992;51.072;6.088;2024-02-26T03:36:22;2.35;;;1.30;;
84763;SDS011;74992;51.072;6.088;2024-02-26T03:39:23;1.88;;;1.20;;
84763;SDS011;74992;51.072;6.088;2024-02-26T03:42:25;1.92;;;1.23;;
84763;SDS011;74992;51.072;6.088;2024-02-26T03:45:26;1.35;;;1.02;;
84763;SDS011;74992;51.072;6.088;2024-02-26T03:48:28;1.73;;;1.10;;
84763;SDS011;74992;51.072;6.088;2024-02-26T03:51:29;2.13;;;1.25;;
84763;SDS011;74992;51.072;6.088;2024-02-26T03:54:32;2.22;;;1.50;;
84763;SDS011;74992;51.072;6.088;2024-02-26T03:57:34;2.33;;;1.55;;
84763;SDS011;74992;51.072;6.088;2024-02-26T04:00:36;2.45;;;1.33;;
84763;SDS011;74992;51.072;6.088;2024-02-26T04:03:38;2.42;;;1.40;;
84763;SDS011;74992;51.072;6.088;2024-02-26T04:06:39;3.17;;;2.25;;
84763;SDS011;74992;51.072;6.088;2024-02-26T04:09:41;1.88;;;1.20;;
84763;SDS011;74992;51.072;6.088;2024-02-26T04:12:43;3.10;;;1.55;;
84763;SDS011;74992;51.072;6.088;2024-02-26T04:15:44;2.83;;;1.50;;
84763;SDS011;74992;51.072;6.088;2024-02-26T04:18:46;3.47;;;1.92;;
84763;SDS011;74992;51.072;6.088;2024-02-26T04:21:50;3.25;;;1.77;;
84763;SDS011;74992;51.072;6.088;2024-02-26T04:24:51;2.05;;;1.20;;
84763;SDS011;74992;51.072;6.088;2024-02-26T04:27:54;2.38;;;1.38;;
84763;SDS011;74992;51.072;6.088;2024-02-26T04:30:56;2.13;;;1.38;;
84763;SDS011;74992;51.072;6.088;2024-02-26T04:33:57;2.55;;;1.67;;
84763;SDS011;74992;51.072;6.088;2024-02-26T04:36:59;2.65;;;2.08;;
84763;SDS011;74992;51.072;6.088;2024-02-26T04:40:00;2.05;;;1.15;;
84763;SDS011;74992;51.072;6.088;2024-02-26T04:43:04;1.85;;;1.15;;
84763;SDS011;74992;51.072;6.088;2024-02-26T04:46:05;2.47;;;1.50;;
84763;SDS011;74992;51.072;6.088;2024-02-26T04:49:08;2.28;;;1.55;;
84763;SDS011;74992;51.072;6.088;2024-02-26T04:52:09;2.10;;;1.20;;
84763;SDS011;74992;51.072;6.088;2024-02-26T04:55:11;2.45;;;1.38;;
84763;SDS011;74992;51.072;6.088;2024-02-26T04:58:12;2.28;;;1.40;;
84763;SDS011;74992;51.072;6.088;2024-02-26T05:01:14;2.25;;;1.50;;
84763;SDS011;74992;51.072;6.088;2024-02-26T05:04:17;2.25;;;1.38;;
84763;SDS011;74992;51.072;6.088;2024-02-26T05:07:18;2.70;;;1.70;;
84763;SDS011;74992;51.072;6.088;2024-02-26T05:10:20;2.03;;;1.23;;
84763;SDS011;74992;51.072;6.088;2024-02-26T05:13:22;3.00;;;1.77;;
84763;SDS011;74992;51.072;6.088;2024-02-26T05:16:23;3.30;;;2.20;;
84763;SDS011;74992;51.072;6.088;2024-02-26T05:19:27;2.80;;;1.50;;
84763;SDS011;74992;51.072;6.088;2024-02-26T05:22:28;1.63;;;1.05;;
84763;SDS011;74992;51.072;6.088;2024-02-26T05:25:31;2.13;;;1.33;;
84763;SDS011;74992;51.072;6.088;2024-02-26T05:28:33;1.95;;;0.98;;
84763;SDS011;74992;51.072;6.088;2024-02-26T05:31:34;2.10;;;1.23;;
84763;SDS011;74992;51.072;6.088;2024-02-26T05:34:36;2.75;;;1.60;;
84763;SDS011;74992;51.072;6.088;2024-02-26T05:37:38;3.20;;;1.63;;
84763;SDS011;74992;51.072;6.088;2024-02-26T05:40:39;2.35;;;1.30;;
84763;SDS011;74992;51.072;6.088;2024-02-26T05:43:42;1.13;;;0.77;;
84763;SDS011;74992;51.072;6.088;2024-02-26T05:46:44;2.13;;;0.82;;
84763;SDS011;74992;51.072;6.088;2024-02-26T05:49:45;2.38;;;1.45;;
84763;SDS011;74992;51.072;6.088;2024-02-26T05:52:46;2.88;;;1.23;;
84763;SDS011;74992;51.072;6.088;2024-02-26T05:55:48;1.52;;;1.00;;
84763;SDS011;74992;51.072;6.088;2024-02-26T05:58:50;2.53;;;1.42;;
84763;SDS011;74992;51.072;6.088;2024-02-26T06:01:51;2.08;;;1.13;;
84763;SDS011;74992;51.072;6.088;2024-02-26T06:04:53;2.88;;;1.70;;
84763;SDS011;74992;51.072;6.088;2024-02-26T06:07:54;2.42;;;1.23;;
84763;SDS011;74992;51.072;6.088;2024-02-26T06:10:56;2.78;;;1.52;;
84763;SDS011;74992;51.072;6.088;2024-02-26T06:13:57;3.75;;;2.90;;
84763;SDS011;74992;51.072;6.088;2024-02-26T06:16:59;2.67;;;1.77;;
84763;SDS011;74992;51.072;6.088;2024-02-26T06:20:01;3.97;;;2.85;;
84763;SDS011;74992;51.072;6.088;2024-02-26T06:23:04;2.80;;;1.52;;
84763;SDS011;74992;51.072;6.088;2024-02-26T06:26:05;2.17;;;1.50;;
84763;SDS011;74992;51.072;6.088;2024-02-26T06:29:07;4.32;;;1.35;;
84763;SDS011;74992;51.072;6.088;2024-02-26T06:32:09;3.45;;;1.92;;
84763;SDS011;74992;51.072;6.088;2024-02-26T06:35:10;1.60;;;0.98;;
84763;SDS011;74992;51.072;6.088;2024-02-26T06:38:12;2.53;;;1.60;;
84763;SDS011;74992;51.072;6.088;2024-02-26T06:41:13;3.22;;;2.08;;
84763;SDS011;74992;51.072;6.088;2024-02-26T06:44:15;2.33;;;1.38;;
84763;SDS011;74992;51.072;6.088;2024-02-26T06:47:17;1.27;;;1.05;;
84763;SDS011;74992;51.072;6.088;2024-02-26T06:50:19;4.45;;;1.70;;
84763;SDS011;74992;51.072;6.088;2024-02-26T06:53:21;2.08;;;1.00;;
84763;SDS011;74992;51.072;6.088;2024-02-26T06:56:24;2.70;;;1.60;;
84763;SDS011;74992;51.072;6.088;2024-02-26T06:59:25;2.88;;;1.50;;
84763;SDS011;74992;51.072;6.088;2024-02-26T07:02:27;2.08;;;1.35;;
84763;SDS011;74992;51.072;6.088;2024-02-26T07:05:28;2.88;;;1.48;;
84763;SDS011;74992;51.072;6.088;2024-02-26T07:08:30;5.75;;;2.40;;
84763;SDS011;74992;51.072;6.088;2024-02-26T07:11:32;3.90;;;2.00;;
84763;SDS011;74992;51.072;6.088;2024-02-26T07:14:34;2.95;;;1.67;;
84763;SDS011;74992;51.072;6.088;2024-02-26T07:20:41;2.20;;;1.45;;
84763;SDS011;74992;51.072;6.088;2024-02-26T07:23:43;3.00;;;1.45;;
84763;SDS011;74992;51.072;6.088;2024-02-26T07:26:44;4.00;;;2.08;;
84763;SDS011;74992;51.072;6.088;2024-02-26T07:29:46;3.63;;;2.72;;
84763;SDS011;74992;51.072;6.088;2024-02-26T07:32:48;2.83;;;1.38;;
84763;SDS011;74992;51.072;6.088;2024-02-26T07:35:49;3.00;;;1.67;;
84763;SDS011;74992;51.072;6.088;2024-02-26T07:38:50;3.45;;;1.85;;
84763;SDS011;74992;51.072;6.088;2024-02-26T07:41:54;3.38;;;2.22;;
84763;SDS011;74992;51.072;6.088;2024-02-26T07:44:56;4.40;;;2.60;;
84763;SDS011;74992;51.072;6.088;2024-02-26T07:47:58;4.35;;;2.50;;
84763;SDS011;74992;51.072;6.088;2024-02-26T07:51:00;4.28;;;1.92;;
84763;SDS011;74992;51.072;6.088;2024-02-26T07:54:03;2.83;;;1.63;;
84763;SDS011;74992;51.072;6.088;2024-02-26T07:57:05;2.22;;;1.23;;
84763;SDS011;74992;51.072;6.088;2024-02-26T08:00:07;3.13;;;1.58;;
84763;SDS011;74992;51.072;6.088;2024-02-26T08:03:09;4.88;;;2.58;;
84763;SDS011;74992;51.072;6.088;2024-02-26T08:06:12;2.80;;;1.27;;
84763;SDS011;74992;51.072;6.088;2024-02-26T08:09:13;3.55;;;1.92;;
84763;SDS011;74992;51.072;6.088;2024-02-26T08:12:15;3.58;;;2.03;;
84763;SDS011;74992;51.072;6.088;2024-02-26T08:15:16;2.63;;;2.00;;
84763;SDS011;74992;51.072;6.088;2024-02-26T08:18:18;2.63;;;1.60;;
84763;SDS011;74992;51.072;6.088;2024-02-26T08:21:21;1.98;;;1.20;;
84763;SDS011;74992;51.072;6.088;2024-02-26T08:24:24;2.80;;;1.90;;
84763;SDS011;74992;51.072;6.088;2024-02-26T08:27:25;2.25;;;1.17;;
84763;SDS011;74992;51.072;6.088;2024-02-26T08:30:27;3.63;;;1.67;;
84763;SDS011;74992;51.072;6.088;2024-02-26T08:33:30;2.15;;;1.38;;
84763;SDS011;74992;51.072;6.088;2024-02-26T08:36:34;3.83;;;1.70;;
84763;SDS011;74992;51.072;6.088;2024-02-26T08:39:35;2.38;;;1.40;;
84763;SDS011;74992;51.072;6.088;2024-02-26T08:42:37;3.22;;;1.80;;
84763;SDS011;74992;51.072;6.088;2024-02-26T08:45:38;2.95;;;1.67;;
84763;SDS011;74992;51.072;6.088;2024-02-26T08:48:40;2.70;;;1.55;;
84763;SDS011;74992;51.072;6.088;2024-02-26T08:51:44;2.90;;;1.52;;
84763;SDS011;74992;51.072;6.088;2024-02-26T08:54:45;3.42;;;2.38;;
84763;SDS011;74992;51.072;6.088;2024-02-26T08:57:47;2.55;;;1.60;;
84763;SDS011;74992;51.072;6.088;2024-02-26T09:00:49;3.92;;;1.90;;
84763;SDS011;74992;51.072;6.088;2024-02-26T09:03:50;2.58;;;1.50;;
84763;SDS011;74992;51.072;6.088;2024-02-26T09:06:52;3.03;;;1.90;;
84763;SDS011;74992;51.072;6.088;2024-02-26T09:09:54;2.50;;;1.40;;
84763;SDS011;74992;51.072;6.088;2024-02-26T09:12:56;2.95;;;1.60;;
84763;SDS011;74992;51.072;6.088;2024-02-26T09:15:59;2.50;;;1.50;;
84763;SDS011;74992;51.072;6.088;2024-02-26T09:19:01;3.78;;;2.25;;
84763;SDS011;74992;51.072;6.088;2024-02-26T09:22:03;3.17;;;2.08;;
84763;SDS011;74992;51.072;6.088;2024-02-26T09:25:06;3.17;;;1.80;;
84763;SDS011;74992;51.072;6.088;2024-02-26T09:28:07;4.00;;;1.98;;
84763;SDS011;74992;51.072;6.088;2024-02-26T09:31:09;3.10;;;1.67;;
84763;SDS011;74992;51.072;6.088;2024-02-26T09:34:10;2.60;;;1.65;;
84763;SDS011;74992;51.072;6.088;2024-02-26T09:37:12;3.00;;;2.05;;
84763;SDS011;74992;51.072;6.088;2024-02-26T09:40:14;3.33;;;1.90;;
84763;SDS011;74992;51.072;6.088;2024-02-26T09:43:17;3.25;;;1.75;;
84763;SDS011;74992;51.072;6.088;2024-02-26T09:46:23;3.55;;;2.05;;
84763;SDS011;74992;51.072;6.088;2024-02-26T09:49:26;5.13;;;2.85;;
84763;SDS011;74992;51.072;6.088;2024-02-26T09:52:28;3.70;;;1.35;;
84763;SDS011;74992;51.072;6.088;2024-02-26T09:55:34;3.03;;;1.65;;
84763;SDS011;74992;51.072;6.088;2024-02-26T09:58:39;2.83;;;1.65;;
84763;SDS011;74992;51.072;6.088;2024-02-26T10:01:42;3.08;;;1.77;;
84763;SDS011;74992;51.072;6.088;2024-02-26T10:04:46;2.97;;;1.60;;
84763;SDS011;74992;51.072;6.088;2024-02-26T10:07:53;2.65;;;1.60;;
84763;SDS011;74992;51.072;6.088;2024-02-26T10:10:57;2.28;;;1.48;;
84763;SDS011;74992;51.072;6.088;2024-02-26T10:13:59;2.70;;;1.30;;
84763;SDS011;74992;51.072;6.088;2024-02-26T10:17:00;4.03;;;2.75;;
84763;SDS011;74992;51.072;6.088;2024-02-26T10:20:15;3.08;;;1.50;;
84763;SDS011;74992;51.072;6.088;2024-02-26T10:23:18;3.28;;;1.77;;
84763;SDS011;74992;51.072;6.088;2024-02-26T10:26:20;5.15;;;1.80;;
84763;SDS011;74992;51.072;6.088;2024-02-26T10:29:23;3.58;;;1.80;;
84763;SDS011;74992;51.072;6.088;2024-02-26T10:32:25;2.38;;;1.42;;
84763;SDS011;74992;51.072;6.088;2024-02-26T10:35:27;2.78;;;1.05;;
84763;SDS011;74992;51.072;6.088;2024-02-26T10:38:29;2.85;;;1.65;;
84763;SDS011;74992;51.072;6.088;2024-02-26T10:41:32;2.33;;;1.30;;
84763;SDS011;74992;51.072;6.088;2024-02-26T10:44:34;3.25;;;1.73;;
84763;SDS011;74992;51.072;6.088;2024-02-26T10:47:36;4.15;;;1.77;;
84763;SDS011;74992;51.072;6.088;2024-02-26T10:50:38;3.47;;;1.67;;
84763;SDS011;74992;51.072;6.088;2024-02-26T10:53:39;4.93;;;1.45;;
84763;SDS011;74992;51.072;6.088;2024-02-26T10:56:44;2.92;;;1.35;;
84763;SDS011;74992;51.072;6.088;2024-02-26T10:59:51;3.30;;;2.10;;
84763;SDS011;74992;51.072;6.088;2024-02-26T11:02:56;3.13;;;1.70;;
84763;SDS011;74992;51.072;6.088;2024-02-26T11:06:01;2.75;;;1.73;;
84763;SDS011;74992;51.072;6.088;2024-02-26T11:09:04;4.15;;;2.92;;
84763;SDS011;74992;51.072;6.088;2024-02-26T11:12:08;2.05;;;1.20;;
84763;SDS011;74992;51.072;6.088;2024-02-26T11:15:12;2.70;;;1.60;;
84763;SDS011;74992;51.072;6.088;2024-02-26T11:18:15;2.88;;;1.70;;
84763;SDS011;74992;51.072;6.088;2024-02-26T11:21:17;2.67;;;1.60;;
84763;SDS011;74992;51.072;6.088;2024-02-26T11:24:22;2.42;;;1.38;;
84763;SDS011;74992;51.072;6.088;2024-02-26T11:27:25;2.53;;;1.45;;
84763;SDS011;74992;51.072;6.088;2024-02-26T11:30:32;4.15;;;2.58;;
84763;SDS011;74992;51.072;6.088;2024-02-26T11:33:40;3.20;;;1.95;;
84763;SDS011;74992;51.072;6.088;2024-02-26T11:36:42;4.05;;;3.65;;
84763;SDS011;74992;51.072;6.088;2024-02-26T11:39:45;3.35;;;2.05;;
84763;SDS011;74992;51.072;6.088;2024-02-26T11:45:49;3.88;;;2.30;;
84763;SDS011;74992;51.072;6.088;2024-02-26T11:48:59;2.63;;;1.95;;
84763;SDS011;74992;51.072;6.088;2024-02-26T11:52:07;3.20;;;1.52;;
84763;SDS011;74992;51.072;6.088;2024-02-26T11:55:09;3.42;;;2.00;;
84763;SDS011;74992;51.072;6.088;2024-02-26T11:58:11;4.15;;;1.80;;
84763;SDS011;74992;51.072;6.088;2024-02-26T12:04:42;2.90;;;1.65;;
84763;SDS011;74992;51.072;6.088;2024-02-26T12:07:45;3.97;;;2.00;;
84763;SDS011;74992;51.072;6.088;2024-02-26T12:10:48;3.38;;;1.70;;
84763;SDS011;74992;51.072;6.088;2024-02-26T12:13:49;3.40;;;1.70;;
84763;SDS011;74992;51.072;6.088;2024-02-26T12:16:51;8.00;;;2.83;;
84763;SDS011;74992;51.072;6.088;2024-02-26T12:19:53;3.83;;;2.30;;
84763;SDS011;74992;51.072;6.088;2024-02-26T12:22:56;3.25;;;1.40;;
84763;SDS011;74992;51.072;6.088;2024-02-26T12:26:01;3.75;;;1.85;;
84763;SDS011;74992;51.072;6.088;2024-02-26T12:29:03;3.95;;;2.25;;
84763;SDS011;74992;51.072;6.088;2024-02-26T12:32:04;3.88;;;2.83;;
84763;SDS011;74992;51.072;6.088;2024-02-26T12:35:06;4.70;;;2.75;;
84763;SDS011;74992;51.072;6.088;2024-02-26T12:38:08;4.95;;;2.83;;
84763;SDS011;74992;51.072;6.088;2024-02-26T12:41:10;4.63;;;2.22;;
84763;SDS011;74992;51.072;6.088;2024-02-26T12:44:13;5.65;;;3.40;;
84763;SDS011;74992;51.072;6.088;2024-02-26T12:47:15;3.85;;;2.08;;
84763;SDS011;74992;51.072;6.088;2024-02-26T12:50:18;4.03;;;2.47;;
84763;SDS011;74992;51.072;6.088;2024-02-26T12:53:21;5.35;;;2.70;;
84763;SDS011;74992;51.072;6.088;2024-02-26T12:56:22;9.88;;;3.50;;
84763;SDS011;74992;51.072;6.088;2024-02-26T12:59:24;4.50;;;2.20;;
84763;SDS011;74992;51.072;6.088;2024-02-26T13:02:27;5.25;;;1.90;;
84763;SDS011;74992;51.072;6.088;2024-02-26T13:05:29;6.30;;;2.85;;
84763;SDS011;74992;51.072;6.088;2024-02-26T13:08:31;5.20;;;2.78;;
84763;SDS011;74992;51.072;6.088;2024-02-26T13:11:33;4.57;;;2.47;;
84763;SDS011;74992;51.072;6.088;2024-02-26T13:14:35;5.70;;;4.00;;
84763;SDS011;74992;51.072;6.088;2024-02-26T13:17:36;4.38;;;2.03;;
84763;SDS011;74992;51.072;6.088;2024-02-26T13:20:38;4.78;;;3.47;;
84763;SDS011;74992;51.072;6.088;2024-02-26T13:23:41;4.85;;;3.03;;
84763;SDS011;74992;51.072;6.088;2024-02-26T13:26:45;6.95;;;3.55;;
84763;SDS011;74992;51.072;6.088;2024-02-26T13:29:47;8.27;;;3.92;;
84763;SDS011;74992;51.072;6.088;2024-02-26T13:32:49;5.00;;;3.25;;
84763;SDS011;74992;51.072;6.088;2024-02-26T13:35:50;8.48;;;5.07;;
84763;SDS011;74992;51.072;6.088;2024-02-26T13:38:53;7.10;;;3.50;;
84763;SDS011;74992;51.072;6.088;2024-02-26T13:41:55;7.07;;;3.70;;
84763;SDS011;74992;51.072;6.088;2024-02-26T13:44:57;5.82;;;3.35;;
84763;SDS011;74992;51.072;6.088;2024-02-26T13:48:01;4.25;;;2.80;;
84763;SDS011;74992;51.072;6.088;2024-02-26T13:51:04;8.45;;;3.20;;
84763;SDS011;74992;51.072;6.088;2024-02-26T13:54:06;8.00;;;5.68;;
84763;SDS011;74992;51.072;6.088;2024-02-26T13:57:07;5.57;;;3.60;;
84763;SDS011;74992;51.072;6.088;2024-02-26T14:00:09;8.77;;;3.25;;
84763;SDS011;74992;51.072;6.088;2024-02-26T14:03:11;5.90;;;3.85;;
84763;SDS011;74992;51.072;6.088;2024-02-26T14:06:13;6.70;;;3.45;;
84763;SDS011;74992;51.072;6.088;2024-02-26T14:09:14;7.97;;;4.07;;
84763;SDS011;74992;51.072;6.088;2024-02-26T14:12:18;6.47;;;3.10;;
84763;SDS011;74992;51.072;6.088;2024-02-26T14:15:20;6.65;;;3.95;;
84763;SDS011;74992;51.072;6.088;2024-02-26T14:18:21;5.20;;;3.60;;
84763;SDS011;74992;51.072;6.088;2024-02-26T14:21:23;7.97;;;4.57;;
84763;SDS011;74992;51.072;6.088;2024-02-26T14:24:25;8.65;;;4.95;;
84763;SDS011;74992;51.072;6.088;2024-02-26T14:27:26;5.70;;;3.20;;
84763;SDS011;74992;51.072;6.088;2024-02-26T14:30:28;6.97;;;3.47;;
84763;SDS011;74992;51.072;6.088;2024-02-26T14:33:31;4.93;;;2.60;;
84763;SDS011;74992;51.072;6.088;2024-02-26T14:36:32;6.72;;;3.97;;
84763;SDS011;74992;51.072;6.088;2024-02-26T14:39:34;8.02;;;3.63;;
84763;SDS011;74992;51.072;6.088;2024-02-26T14:42:35;7.05;;;3.53;;
84763;SDS011;74992;51.072;6.088;2024-02-26T14:45:37;5.85;;;3.72;;
84763;SDS011;74992;51.072;6.088;2024-02-26T14:48:39;5.43;;;3.88;;
84763;SDS011;74992;51.072;6.088;2024-02-26T14:51:40;6.28;;;4.38;;
84763;SDS011;74992;51.072;6.088;2024-02-26T14:54:42;5.55;;;2.83;;
84763;SDS011;74992;51.072;6.088;2024-02-26T14:57:43;5.03;;;3.45;;
84763;SDS011;74992;51.072;6.088;2024-02-26T15:00:45;5.95;;;3.08;;
84763;SDS011;74992;51.072;6.088;2024-02-26T15:03:46;5.10;;;2.47;;
84763;SDS011;74992;51.072;6.088;2024-02-26T15:06:48;6.22;;;3.15;;
84763;SDS011;74992;51.072;6.088;2024-02-26T15:09:50;6.70;;;3.33;;
84763;SDS011;74992;51.072;6.088;2024-02-26T15:12:56;4.78;;;3.28;;
84763;SDS011;74992;51.072;6.088;2024-02-26T15:15:58;7.90;;;3.25;;
84763;SDS011;74992;51.072;6.088;2024-02-26T15:18:59;4.97;;;3.10;;
84763;SDS011;74992;51.072;6.088;2024-02-26T15:22:02;6.80;;;4.03;;
84763;SDS011;74992;51.072;6.088;2024-02-26T15:25:04;5.47;;;3.38;;
84763;SDS011;74992;51.072;6.088;2024-02-26T15:28:05;6.10;;;2.53;;
84763;SDS011;74992;51.072;6.088;2024-02-26T15:31:07;5.63;;;2.63;;
84763;SDS011;74992;51.072;6.088;2024-02-26T15:34:09;4.43;;;2.17;;
84763;SDS011;74992;51.072;6.088;2024-02-26T15:37:10;3.92;;;1.88;;
84763;SDS011;74992;51.072;6.088;2024-02-26T15:40:12;3.63;;;2.05;;
84763;SDS011;74992;51.072;6.088;2024-02-26T15:43:13;3.03;;;1.67;;
84763;SDS011;74992;51.072;6.088;2024-02-26T15:46:15;6.55;;;2.97;;
84763;SDS011;74992;51.072;6.088;2024-02-26T15:49:17;4.68;;;2.40;;
84763;SDS011;74992;51.072;6.088;2024-02-26T15:52:18;4.28;;;2.28;;
84763;SDS011;74992;51.072;6.088;2024-02-26T15:55:20;5.10;;;2.75;;
84763;SDS011;74992;51.072;6.088;2024-02-26T15:58:21;6.72;;;2.83;;
84763;SDS011;74992;51.072;6.088;2024-02-26T16:01:23;2.47;;;1.40;;
84763;SDS011;74992;51.072;6.088;2024-02-26T16:04:25;6.97;;;2.85;;
84763;SDS011;74992;51.072;6.088;2024-02-26T16:07:30;4.70;;;2.03;;
84763;SDS011;74992;51.072;6.088;2024-02-26T16:10:44;3.22;;;1.88;;
84763;SDS011;74992;51.072;6.088;2024-02-26T16:16:52;2.45;;;1.38;;
84763;SDS011;74992;51.072;6.088;2024-02-26T16:19:57;5.93;;;3.30;;
84763;SDS011;74992;51.072;6.088;2024-02-26T16:23:00;4.30;;;2.90;;
84763;SDS011;74992;51.072;6.088;2024-02-26T16:26:06;5.68;;;3.20;;
84763;SDS011;74992;51.072;6.088;2024-02-26T16:29:07;6.18;;;3.13;;
84763;SDS011;74992;51.072;6.088;2024-02-26T16:32:09;4.47;;;2.50;;
84763;SDS011;74992;51.072;6.088;2024-02-26T16:35:10;4.43;;;2.22;;
84763;SDS011;74992;51.072;6.088;2024-02-26T16:38:12;5.53;;;2.80;;
84763;SDS011;74992;51.072;6.088;2024-02-26T16:41:13;5.40;;;4.05;;
84763;SDS011;74992;51.072;6.088;2024-02-26T16:44:15;4.70;;;2.95;;
84763;SDS011;74992;51.072;6.088;2024-02-26T16:47:16;4.32;;;2.72;;
84763;SDS011;74992;51.072;6.088;2024-02-26T16:50:18;7.90;;;3.88;;
84763;SDS011;74992;51.072;6.088;2024-02-26T16:53:20;5.65;;;2.72;;
84763;SDS011;74992;51.072;6.088;2024-02-26T16:56:21;7.55;;;6.47;;
84763;SDS011;74992;51.072;6.088;2024-02-26T16:59:23;6.13;;;2.67;;
84763;SDS011;74992;51.072;6.088;2024-02-26T17:02:28;4.88;;;2.75;;
84763;SDS011;74992;51.072;6.088;2024-02-26T17:05:29;6.75;;;2.65;;
84763;SDS011;74992;51.072;6.088;2024-02-26T17:08:31;6.20;;;3.78;;
84763;SDS011;74992;51.072;6.088;2024-02-26T17:11:34;6.70;;;3.70;;
84763;SDS011;74992;51.072;6.088;2024-02-26T17:14:36;7.05;;;3.90;;
84763;SDS011;74992;51.072;6.088;2024-02-26T17:17:37;5.53;;;2.55;;
84763;SDS011;74992;51.072;6.088;2024-02-26T17:20:39;5.03;;;3.03;;
84763;SDS011;74992;51.072;6.088;2024-02-26T17:23:41;6.00;;;3.22;;
84763;SDS011;74992;51.072;6.088;2024-02-26T17:26:42;4.90;;;3.10;;
84763;SDS011;74992;51.072;6.088;2024-02-26T17:29:44;5.00;;;3.08;;
84763;SDS011;74992;51.072;6.088;2024-02-26T17:32:46;4.60;;;2.42;;
84763;SDS011;74992;51.072;6.088;2024-02-26T17:35:47;5.13;;;2.72;;
84763;SDS011;74992;51.072;6.088;2024-02-26T17:38:49;7.20;;;3.97;;
84763;SDS011;74992;51.072;6.088;2024-02-26T17:41:51;6.22;;;3.03;;
84763;SDS011;74992;51.072;6.088;2024-02-26T17:44:53;5.93;;;3.55;;
84763;SDS011;74992;51.072;6.088;2024-02-26T17:47:56;7.47;;;2.53;;
84763;SDS011;74992;51.072;6.088;2024-02-26T17:50:57;7.60;;;6.72;;
84763;SDS011;74992;51.072;6.088;2024-02-26T17:53:59;7.30;;;3.75;;
84763;SDS011;74992;51.072;6.088;2024-02-26T17:57:00;7.15;;;3.97;;
84763;SDS011;74992;51.072;6.088;2024-02-26T18:00:02;8.30;;;3.13;;
84763;SDS011;74992;51.072;6.088;2024-02-26T18:03:05;5.38;;;3.47;;
84763;SDS011;74992;51.072;6.088;2024-02-26T18:06:06;7.55;;;4.45;;
84763;SDS011;74992;51.072;6.088;2024-02-26T18:09:08;6.30;;;3.90;;
84763;SDS011;74992;51.072;6.088;2024-02-26T18:12:10;5.68;;;4.20;;
84763;SDS011;74992;51.072;6.088;2024-02-26T18:15:11;4.68;;;2.42;;
84763;SDS011;74992;51.072;6.088;2024-02-26T18:18:13;4.90;;;2.47;;
84763;SDS011;74992;51.072;6.088;2024-02-26T18:21:14;4.32;;;3.13;;
84763;SDS011;74992;51.072;6.088;2024-02-26T18:24:18;5.05;;;3.28;;
84763;SDS011;74992;51.072;6.088;2024-02-26T18:27:19;4.57;;;3.17;;
84763;SDS011;74992;51.072;6.088;2024-02-26T18:30:21;5.47;;;3.78;;